createdAt,value
2018-08-10T00:01:42.392Z,22.30
2018-08-10T00:04:10.631Z,22.40
2018-08-10T00:06:39.641Z,22.60
2018-08-10T00:09:07.918Z,22.60
2018-08-10T00:11:37.027Z,22.70
2018-08-10T00:14:05.262Z,22.70
2018-08-10T00:16:34.276Z,22.50
2018-08-10T00:19:03.395Z,22.50
2018-08-10T00:21:31.630Z,22.50
2018-08-10T00:24:00.721Z,22.10
2018-08-10T00:26:28.933Z,22.10
2018-08-10T00:28:57.174Z,22.20
2018-08-10T00:31:26.619Z,22.30
2018-08-10T00:33:54.863Z,22.20
2018-08-10T00:36:24.026Z,22.40
2018-08-10T00:38:52.261Z,22.40
2018-08-10T00:41:20.497Z,22.40
2018-08-10T00:43:49.926Z,21.90
2018-08-10T00:46:18.170Z,21.80
2018-08-10T00:48:47.171Z,22.00
2018-08-10T00:51:16.226Z,22.00
2018-08-10T00:53:44.461Z,22.00
2018-08-10T00:56:12.710Z,22.20
2018-08-10T00:58:41.709Z,22.20
2018-08-10T01:01:11.029Z,22.10
2018-08-10T01:03:39.276Z,22.10
2018-08-10T01:06:08.279Z,21.80
2018-08-10T01:08:37.297Z,21.70
2018-08-10T01:11:05.561Z,21.70
2018-08-10T01:13:33.821Z,21.80
2018-08-10T01:16:02.049Z,21.80
2018-08-10T01:18:30.299Z,21.80
2018-08-10T01:20:58.550Z,21.70
2018-08-10T01:23:26.791Z,21.80
2018-08-10T01:25:55.043Z,21.60
2018-08-10T01:28:23.334Z,21.30
2018-08-10T01:30:52.284Z,21.10
2018-08-10T01:33:20.529Z,21.00
2018-08-10T01:35:49.532Z,21.30
2018-08-10T01:38:17.840Z,21.30
2018-08-10T01:40:46.114Z,21.40
2018-08-10T01:43:14.642Z,21.40
2018-08-10T01:45:43.665Z,21.30
2018-08-10T01:48:11.906Z,21.30
2018-08-10T01:50:40.159Z,21.20
2018-08-10T01:53:08.400Z,21.30
2018-08-10T01:55:36.798Z,20.80
2018-08-10T01:58:05.043Z,20.60
2018-08-10T02:00:33.281Z,20.80
2018-08-10T02:03:01.521Z,20.80
2018-08-10T02:05:29.771Z,20.40
2018-08-10T02:07:58.018Z,20.20
2018-08-10T02:10:27.034Z,20.00
2018-08-10T02:12:55.280Z,20.00
2018-08-10T02:15:24.292Z,20.30
2018-08-10T02:17:53.302Z,20.30
2018-08-10T02:20:21.873Z,20.30
2018-08-10T02:22:50.110Z,20.30
2018-08-10T02:25:18.350Z,20.50
2018-08-10T02:27:46.597Z,20.40
2018-08-10T02:30:14.850Z,20.50
2018-08-10T02:32:43.867Z,20.70
2018-08-10T02:35:12.106Z,20.70
2018-08-10T02:37:40.495Z,20.90
2018-08-10T02:40:09.514Z,21.00
2018-08-10T02:42:37.752Z,21.00
2018-08-10T02:45:06.025Z,21.00
2018-08-10T02:47:34.242Z,21.00
2018-08-10T02:50:02.493Z,20.90
2018-08-10T02:52:31.494Z,20.80
2018-08-10T02:54:59.740Z,20.70
2018-08-10T02:57:27.994Z,20.70
2018-08-10T02:59:56.226Z,20.80
2018-08-10T03:02:24.520Z,20.70
2018-08-10T03:04:52.750Z,20.80
2018-08-10T03:07:21.766Z,20.60
2018-08-10T03:09:50.007Z,20.60
2018-08-10T03:12:18.245Z,20.70
2018-08-10T03:14:46.518Z,20.70
2018-08-10T03:17:14.749Z,20.80
2018-08-10T03:19:42.990Z,20.90
2018-08-10T03:22:11.295Z,20.90
2018-08-10T03:24:39.489Z,21.00
2018-08-10T03:27:07.742Z,20.90
2018-08-10T03:29:36.746Z,20.70
2018-08-10T03:32:05.001Z,20.70
2018-08-10T03:34:33.634Z,20.70
2018-08-10T03:37:01.882Z,20.70
2018-08-10T03:39:30.695Z,20.80
2018-08-10T03:41:58.928Z,20.80
2018-08-10T03:44:27.946Z,20.70
2018-08-10T03:46:56.184Z,20.80
2018-08-10T03:49:24.471Z,20.70
2018-08-10T03:51:53.484Z,20.60
2018-08-10T03:54:21.727Z,20.60
2018-08-10T03:56:49.999Z,20.70
2018-08-10T03:59:18.240Z,20.70
2018-08-10T04:01:46.487Z,20.70
2018-08-10T04:04:15.035Z,20.60
2018-08-10T04:06:43.285Z,20.60
2018-08-10T04:09:11.522Z,20.70
2018-08-10T04:11:39.765Z,20.70
2018-08-10T04:14:08.773Z,20.80
2018-08-10T04:16:37.279Z,20.80
2018-08-10T04:19:05.517Z,20.80
2018-08-10T04:21:34.513Z,20.80
2018-08-10T04:24:02.782Z,20.70
2018-08-10T04:26:32.093Z,20.70
2018-08-10T04:29:00.334Z,20.70
2018-08-10T04:31:28.566Z,20.80
2018-08-10T04:33:56.832Z,20.80
2018-08-10T04:36:25.058Z,20.80
2018-08-10T04:38:53.294Z,20.80
2018-08-10T04:41:21.553Z,20.80
2018-08-10T04:43:49.806Z,20.80
2018-08-10T04:46:18.819Z,20.80
2018-08-10T04:48:47.062Z,20.80
2018-08-10T04:51:15.310Z,20.70
2018-08-10T04:53:44.024Z,20.70
2018-08-10T04:56:12.234Z,20.80
2018-08-10T04:58:40.481Z,20.80
2018-08-10T05:01:09.489Z,20.70
2018-08-10T05:03:37.744Z,20.70
2018-08-10T05:06:06.750Z,20.80
2018-08-10T05:08:35.003Z,20.80
2018-08-10T05:11:03.242Z,20.70
2018-08-10T05:13:31.500Z,20.60
2018-08-10T05:15:59.745Z,20.60
2018-08-10T05:18:29.165Z,20.60
2018-08-10T05:20:58.177Z,20.60
2018-08-10T05:23:26.431Z,20.50
2018-08-10T05:25:54.703Z,20.60
2018-08-10T05:28:22.984Z,20.70
2018-08-10T05:30:51.254Z,20.70
2018-08-10T05:33:20.257Z,20.60
2018-08-10T05:35:48.493Z,20.60
2018-08-10T05:38:17.530Z,20.70
2018-08-10T05:40:45.770Z,20.70
2018-08-10T05:43:14.790Z,20.70
2018-08-10T05:45:43.040Z,20.70
2018-08-10T05:48:11.313Z,20.60
2018-08-10T05:50:40.312Z,20.70
2018-08-10T05:53:09.314Z,20.70
2018-08-10T05:55:37.581Z,20.70
2018-08-10T05:58:05.829Z,20.70
2018-08-10T06:00:34.322Z,20.60
2018-08-10T06:03:02.506Z,20.60
2018-08-10T06:05:30.911Z,20.70
2018-08-10T06:07:59.165Z,20.60
2018-08-10T06:10:27.418Z,20.50
2018-08-10T06:12:55.674Z,20.60
2018-08-10T06:15:23.951Z,20.60
2018-08-10T06:17:52.175Z,20.40
2018-08-10T06:20:20.442Z,20.40
2018-08-10T06:22:48.749Z,20.50
2018-08-10T06:25:17.690Z,20.50
2018-08-10T06:27:46.767Z,20.40
2018-08-10T06:30:14.983Z,20.30
2018-08-10T06:32:43.232Z,20.30
2018-08-10T06:35:12.233Z,20.40
2018-08-10T06:37:41.245Z,20.50
2018-08-10T06:40:09.494Z,20.50
2018-08-10T06:42:37.959Z,20.50
2018-08-10T06:45:06.323Z,20.70
2018-08-10T06:47:34.411Z,20.70
2018-08-10T06:50:03.450Z,20.70
2018-08-10T06:52:31.980Z,20.70
2018-08-10T06:55:00.238Z,20.60
2018-08-10T06:57:28.762Z,20.70
2018-08-10T06:59:57.026Z,20.80
2018-08-10T07:02:26.053Z,20.90
2018-08-10T07:04:54.304Z,20.90
2018-08-10T07:07:22.569Z,20.90
2018-08-10T07:09:51.679Z,21.10
2018-08-10T07:12:19.927Z,21.10
2018-08-10T07:14:48.934Z,21.00
2018-08-10T07:17:17.196Z,21.00
2018-08-10T07:19:46.219Z,21.40
2018-08-10T07:22:15.217Z,21.50
2018-08-10T07:24:43.553Z,21.40
2018-08-10T07:27:12.677Z,22.20
2018-08-10T07:29:41.552Z,22.10
2018-08-10T07:32:10.723Z,22.10
2018-08-10T07:34:38.945Z,22.10
2018-08-10T07:37:07.192Z,22.00
2018-08-10T07:39:36.507Z,21.90
2018-08-10T07:42:04.772Z,21.90
2018-08-10T07:44:33.783Z,22.40
2018-08-10T07:47:02.040Z,22.40
2018-08-10T07:49:31.064Z,22.80
2018-08-10T07:51:59.632Z,22.80
2018-08-10T07:54:28.660Z,23.10
2018-08-10T07:56:56.908Z,23.10
2018-08-10T07:59:25.138Z,23.00
2018-08-10T08:01:53.651Z,23.00
2018-08-10T08:04:21.895Z,23.10
2018-08-10T08:06:50.201Z,23.00
2018-08-10T08:09:18.382Z,22.80
2018-08-10T08:11:46.622Z,22.90
2018-08-10T08:14:15.646Z,23.10
2018-08-10T08:16:43.897Z,23.10
2018-08-10T08:19:12.907Z,23.30
2018-08-10T08:21:41.491Z,23.30
2018-08-10T08:24:09.733Z,23.10
2018-08-10T08:26:38.745Z,23.10
2018-08-10T08:29:09.490Z,23.00
2018-08-10T08:31:37.686Z,23.00
2018-08-10T08:34:05.962Z,23.30
2018-08-10T08:36:34.211Z,23.60
2018-08-10T08:39:07.273Z,23.80
2018-08-10T08:41:36.314Z,24.20
2018-08-10T08:44:16.287Z,24.10
2018-08-10T08:46:44.541Z,24.40
2018-08-10T08:49:12.787Z,24.40
2018-08-10T08:51:41.051Z,24.30
2018-08-10T08:54:10.400Z,24.40
2018-08-10T08:56:40.080Z,24.10
2018-08-10T08:59:10.463Z,24.10
2018-08-10T09:01:39.700Z,23.60
2018-08-10T09:04:23.690Z,23.40
2018-08-10T09:06:53.333Z,22.90
2018-08-10T09:09:34.196Z,22.80
2018-08-10T09:12:02.700Z,22.60
2018-08-10T09:14:38.131Z,22.10
2018-08-10T09:17:06.570Z,22.00
2018-08-10T09:19:34.756Z,22.30
2018-08-10T09:22:03.020Z,22.60
2018-08-10T09:24:31.267Z,23.00
2018-08-10T09:26:59.615Z,23.40
2018-08-10T09:29:28.018Z,23.50
2018-08-10T09:31:56.324Z,23.50
2018-08-10T09:34:24.725Z,23.50
2018-08-10T09:36:53.777Z,23.60
2018-08-10T09:39:22.205Z,23.80
2018-08-10T09:41:50.539Z,24.10
2018-08-10T09:44:18.772Z,24.20
2018-08-10T09:46:47.046Z,24.40
2018-08-10T09:49:15.302Z,24.50
2018-08-10T09:51:44.314Z,24.40
2018-08-10T09:54:12.572Z,24.40
2018-08-10T09:56:40.819Z,24.10
2018-08-10T09:59:09.071Z,24.10
2018-08-10T10:01:37.415Z,23.80
2018-08-10T10:04:05.632Z,23.80
2018-08-10T10:06:33.956Z,24.10
2018-08-10T10:09:02.224Z,24.40
2018-08-10T10:11:31.477Z,24.50
2018-08-10T10:13:59.723Z,24.50
2018-08-10T10:16:27.991Z,24.60
2018-08-10T10:18:56.535Z,24.40
2018-08-10T10:21:24.778Z,24.30
2018-08-10T10:23:53.062Z,24.20
2018-08-10T10:26:22.083Z,24.10
2018-08-10T10:28:50.364Z,24.10
2018-08-10T10:31:18.634Z,24.00
2018-08-10T10:33:46.892Z,24.20
2018-08-10T10:36:15.147Z,24.30
2018-08-10T10:38:43.399Z,24.30
2018-08-10T10:41:11.661Z,24.50
2018-08-10T10:43:39.925Z,24.70
2018-08-10T10:46:08.954Z,24.20
2018-08-10T10:48:37.224Z,24.20
2018-08-10T10:51:05.509Z,24.20
2018-08-10T10:53:33.759Z,24.20
2018-08-10T10:56:03.080Z,24.20
2018-08-10T10:58:31.326Z,24.20
2018-08-10T11:00:59.618Z,24.30
2018-08-10T11:03:27.869Z,24.40
2018-08-10T11:05:56.898Z,24.80
2018-08-10T11:08:25.152Z,24.80
2018-08-10T11:10:53.430Z,24.90
2018-08-10T11:13:21.690Z,25.00
2018-08-10T11:15:50.730Z,24.70
2018-08-10T11:18:18.970Z,24.70
2018-08-10T11:20:47.224Z,25.00
2018-08-10T11:23:15.486Z,25.30
2018-08-10T11:25:44.541Z,25.10
2018-08-10T11:28:12.862Z,25.10
2018-08-10T11:30:41.899Z,25.50
2018-08-10T11:33:10.151Z,25.50
2018-08-10T11:35:38.415Z,25.40
2018-08-10T11:38:07.448Z,25.50
2018-08-10T11:40:35.692Z,25.50
2018-08-10T11:43:03.991Z,25.80
2018-08-10T11:45:32.258Z,25.80
2018-08-10T11:48:00.519Z,25.80
2018-08-10T11:50:29.024Z,25.90
2018-08-10T11:52:57.287Z,25.70
2018-08-10T11:55:25.539Z,25.90
2018-08-10T11:57:54.584Z,25.90
2018-08-10T12:00:22.869Z,25.90
2018-08-10T12:02:51.149Z,25.90
2018-08-10T12:05:19.471Z,26.10
2018-08-10T12:07:47.766Z,26.30
2018-08-10T12:10:16.039Z,26.00
2018-08-10T12:12:44.322Z,26.00
2018-08-10T12:15:12.974Z,26.00
2018-08-10T12:17:41.220Z,25.60
2018-08-10T12:20:09.516Z,25.60
2018-08-10T12:22:38.540Z,25.50
2018-08-10T12:25:06.812Z,25.60
2018-08-10T12:27:35.156Z,25.60
2018-08-10T12:30:03.373Z,25.40
2018-08-10T12:32:31.930Z,25.50
2018-08-10T12:35:00.931Z,25.80
2018-08-10T12:37:29.184Z,25.80
2018-08-10T12:39:58.229Z,26.60
2018-08-10T12:42:26.496Z,26.50
2018-08-10T12:44:54.810Z,26.70
2018-08-10T12:47:23.059Z,26.70
2018-08-10T12:49:51.358Z,26.70
2018-08-10T12:52:19.615Z,26.90
2018-08-10T12:54:47.942Z,26.90
2018-08-10T12:57:16.517Z,27.10
2018-08-10T12:59:45.542Z,27.30
2018-08-10T13:02:13.845Z,27.30
2018-08-10T13:04:42.885Z,27.00
2018-08-10T13:07:11.176Z,27.00
2018-08-10T13:09:39.432Z,26.60
2018-08-10T13:12:08.446Z,26.60
2018-08-10T13:14:36.723Z,26.60
2018-08-10T13:17:05.832Z,26.40
2018-08-10T13:19:35.984Z,26.30
2018-08-10T13:22:04.376Z,26.50
2018-08-10T13:24:32.633Z,26.70
2018-08-10T13:27:00.891Z,27.00
2018-08-10T13:29:29.196Z,27.30
2018-08-10T13:31:57.471Z,27.40
2018-08-10T13:34:25.710Z,27.60
2018-08-10T13:36:54.999Z,27.90
2018-08-10T13:39:23.269Z,27.80
2018-08-10T13:41:51.532Z,27.90
2018-08-10T13:44:19.805Z,27.70
2018-08-10T13:46:48.050Z,27.70
2018-08-10T13:49:17.496Z,27.10
2018-08-10T13:51:46.900Z,27.40
2018-08-10T13:54:15.989Z,27.40
2018-08-10T13:56:44.219Z,27.40
2018-08-10T13:59:12.478Z,27.50
2018-08-10T14:01:40.726Z,27.70
2018-08-10T14:04:08.975Z,27.90
2018-08-10T14:06:37.327Z,28.00
2018-08-10T14:09:05.510Z,28.00
2018-08-10T14:11:34.531Z,28.10
2018-08-10T14:14:02.799Z,28.00
2018-08-10T14:16:31.071Z,28.00
2018-08-10T14:18:59.337Z,28.00
2018-08-10T14:21:27.609Z,27.90
2018-08-10T14:23:56.622Z,27.70
2018-08-10T14:26:24.870Z,27.70
2018-08-10T14:28:53.129Z,27.90
2018-08-10T14:31:22.167Z,28.00
2018-08-10T14:33:50.418Z,28.00
2018-08-10T14:36:18.699Z,27.80
2018-08-10T14:38:47.694Z,27.40
2018-08-10T14:41:15.982Z,27.40
2018-08-10T14:43:44.225Z,27.50
2018-08-10T14:46:13.245Z,27.90
2018-08-10T14:48:41.497Z,27.90
2018-08-10T14:51:09.751Z,27.90
2018-08-10T14:53:38.147Z,27.90
2018-08-10T14:56:06.355Z,27.80
2018-08-10T14:58:34.606Z,27.90
2018-08-10T15:01:02.860Z,27.90
2018-08-10T15:03:31.885Z,28.20
2018-08-10T15:06:00.174Z,28.20
2018-08-10T15:08:28.427Z,28.30
2018-08-10T15:10:56.692Z,28.30
2018-08-10T15:13:25.694Z,27.90
2018-08-10T15:15:54.043Z,27.90
2018-08-10T15:18:22.356Z,27.80
2018-08-10T15:20:50.546Z,27.90
2018-08-10T15:23:18.799Z,27.80
2018-08-10T15:25:47.079Z,27.80
2018-08-10T15:28:15.333Z,27.80
2018-08-10T15:30:44.456Z,28.10
2018-08-10T15:33:13.458Z,27.90
2018-08-10T15:35:41.694Z,27.90
2018-08-10T15:38:10.753Z,28.00
2018-08-10T15:40:38.970Z,28.00
2018-08-10T15:43:07.232Z,28.00
2018-08-10T15:45:36.242Z,28.20
2018-08-10T15:48:04.480Z,28.10
2018-08-10T15:50:33.127Z,28.20
2018-08-10T15:53:01.375Z,28.40
2018-08-10T15:55:29.622Z,28.10
2018-08-10T15:57:58.953Z,28.00
2018-08-10T16:00:27.212Z,28.00
2018-08-10T16:02:56.227Z,27.90
2018-08-10T16:05:24.490Z,27.90
2018-08-10T16:07:52.743Z,27.90
2018-08-10T16:10:21.770Z,28.00
2018-08-10T16:12:50.059Z,28.00
2018-08-10T16:15:18.305Z,27.90
2018-08-10T16:17:46.555Z,28.00
2018-08-10T16:20:15.575Z,27.80
2018-08-10T16:22:43.914Z,27.80
2018-08-10T16:25:12.195Z,27.70
2018-08-10T16:27:40.721Z,27.90
2018-08-10T16:30:08.977Z,28.10
2018-08-10T16:32:37.241Z,27.90
2018-08-10T16:35:06.251Z,27.60
2018-08-10T16:37:34.521Z,27.60
2018-08-10T16:40:03.835Z,27.30
2018-08-10T16:42:32.094Z,27.30
2018-08-10T16:45:01.134Z,27.20
2018-08-10T16:47:29.923Z,27.20
2018-08-10T16:49:58.149Z,27.30
2018-08-10T16:52:26.402Z,27.30
2018-08-10T16:54:54.658Z,27.30
2018-08-10T16:57:22.902Z,27.40
2018-08-10T16:59:51.262Z,27.30
2018-08-10T17:02:19.521Z,27.50
2018-08-10T17:04:48.534Z,27.10
2018-08-10T17:07:16.951Z,27.10
2018-08-10T17:09:45.249Z,26.90
2018-08-10T17:12:13.506Z,26.60
2018-08-10T17:14:41.752Z,26.50
2018-08-10T17:17:10.004Z,26.70
2018-08-10T17:19:38.297Z,27.00
2018-08-10T17:22:06.555Z,27.00
2018-08-10T17:24:34.853Z,26.90
2018-08-10T17:27:03.248Z,26.90
2018-08-10T17:29:31.490Z,27.10
2018-08-10T17:31:59.805Z,27.20
2018-08-10T17:34:28.033Z,27.50
2018-08-10T17:36:56.412Z,27.70
2018-08-10T17:39:24.699Z,27.80
2018-08-10T17:41:52.969Z,27.90
2018-08-10T17:44:21.253Z,27.90
2018-08-10T17:46:49.598Z,27.80
2018-08-10T17:49:17.848Z,27.60
2018-08-10T17:51:46.118Z,27.40
2018-08-10T17:54:14.395Z,27.10
2018-08-10T17:56:42.620Z,27.00
2018-08-10T17:59:10.943Z,27.10
2018-08-10T18:01:39.354Z,27.20
2018-08-10T18:04:08.366Z,27.10
2018-08-10T18:06:36.624Z,27.10
2018-08-10T18:09:05.661Z,27.00
2018-08-10T18:11:33.915Z,27.00
2018-08-10T18:14:02.317Z,27.10
2018-08-10T18:16:30.572Z,27.00
2018-08-10T18:18:58.905Z,27.00
2018-08-10T18:21:27.152Z,26.90
2018-08-10T18:23:55.422Z,26.80
2018-08-10T18:26:23.692Z,26.80
2018-08-10T18:28:51.926Z,26.70
2018-08-10T18:31:20.189Z,26.60
2018-08-10T18:33:49.241Z,26.00
2018-08-10T18:36:17.786Z,26.00
2018-08-10T18:38:46.035Z,25.80
2018-08-10T18:41:14.283Z,25.60
2018-08-10T18:43:42.535Z,25.40
2018-08-10T18:46:10.797Z,25.40
2018-08-10T18:48:39.059Z,25.40
2018-08-10T18:51:07.364Z,25.40
2018-08-10T18:53:35.587Z,25.30
2018-08-10T18:56:04.610Z,25.10
2018-08-10T18:58:32.917Z,25.10
2018-08-10T19:01:01.203Z,25.10
2018-08-10T19:03:29.546Z,25.00
2018-08-10T19:05:57.878Z,24.70
2018-08-10T19:08:27.628Z,24.30
2018-08-10T19:10:55.913Z,24.30
2018-08-10T19:13:24.170Z,24.20
2018-08-10T19:15:53.162Z,24.00
2018-08-10T19:18:22.671Z,23.80
2018-08-10T19:20:50.948Z,23.80
2018-08-10T19:23:19.246Z,23.80
2018-08-10T19:25:47.487Z,23.70
2018-08-10T19:28:15.780Z,23.70
2018-08-10T19:30:44.004Z,23.60
2018-08-10T19:33:13.292Z,23.50
2018-08-10T19:35:41.555Z,23.50
2018-08-10T19:38:09.797Z,23.50
2018-08-10T19:40:38.070Z,23.50
2018-08-10T19:43:06.574Z,23.60
2018-08-10T19:45:34.810Z,23.70
2018-08-10T19:48:03.086Z,23.70
2018-08-10T19:50:31.359Z,23.70
2018-08-10T19:52:59.620Z,23.50
2018-08-10T19:55:28.643Z,23.10
2018-08-10T19:57:57.153Z,23.10
2018-08-10T20:00:26.176Z,23.00
2018-08-10T20:02:55.194Z,22.90
2018-08-10T20:05:24.201Z,22.80
2018-08-10T20:07:52.489Z,22.80
2018-08-10T20:10:20.757Z,22.70
2018-08-10T20:12:49.057Z,22.60
2018-08-10T20:15:17.431Z,22.50
2018-08-10T20:17:45.574Z,22.50
2018-08-10T20:20:13.872Z,22.50
2018-08-10T20:22:42.135Z,22.30
2018-08-10T20:25:10.357Z,22.30
2018-08-10T20:27:39.370Z,22.20
2018-08-10T20:30:07.646Z,22.20
2018-08-10T20:32:35.898Z,22.10
2018-08-10T20:35:04.155Z,22.00
2018-08-10T20:37:32.416Z,21.90
2018-08-10T20:40:00.645Z,21.80
2018-08-10T20:42:28.885Z,21.80
2018-08-10T20:44:57.150Z,21.70
2018-08-10T20:47:25.382Z,21.60
2018-08-10T20:49:53.647Z,21.80
2018-08-10T20:52:21.913Z,21.70
2018-08-10T20:54:50.143Z,21.70
2018-08-10T20:57:18.391Z,21.60
2018-08-10T20:59:46.676Z,21.60
2018-08-10T21:02:14.909Z,21.60
2018-08-10T21:04:43.912Z,21.30
2018-08-10T21:07:12.162Z,21.30
2018-08-10T21:09:40.398Z,21.20
2018-08-10T21:12:08.803Z,21.10
2018-08-10T21:14:37.034Z,21.00
2018-08-10T21:17:05.282Z,21.00
2018-08-10T21:19:34.570Z,21.00
2018-08-10T21:22:02.801Z,21.00
2018-08-10T21:24:31.058Z,21.00
2018-08-10T21:26:59.375Z,20.80
2018-08-10T21:29:27.616Z,20.90
2018-08-10T21:31:55.856Z,21.00
2018-08-10T21:34:24.898Z,20.90
2018-08-10T21:36:53.149Z,20.80
2018-08-10T21:39:21.647Z,20.80
2018-08-10T21:41:49.884Z,20.80
2018-08-10T21:44:18.131Z,20.80
2018-08-10T21:46:46.523Z,20.80
2018-08-10T21:49:15.529Z,20.90
2018-08-10T21:51:43.768Z,20.90
2018-08-10T21:54:12.022Z,20.70
2018-08-10T21:56:40.335Z,20.70
2018-08-10T21:59:08.551Z,20.80
2018-08-10T22:01:36.801Z,20.70
2018-08-10T22:04:05.053Z,20.80
2018-08-10T22:06:33.399Z,20.70
2018-08-10T22:09:01.641Z,20.70
2018-08-10T22:11:29.888Z,20.80
2018-08-10T22:13:58.371Z,20.90
2018-08-10T22:19:22.385Z,20.90
2018-08-10T22:21:50.625Z,20.50
2018-08-10T22:24:19.145Z,20.70
2018-08-10T22:26:47.391Z,20.70
2018-08-10T22:29:16.403Z,20.90
2018-08-10T22:31:44.886Z,20.90
2018-08-10T22:34:13.130Z,20.80
2018-08-10T22:36:42.161Z,20.60
2018-08-10T22:39:10.419Z,20.60
2018-08-10T22:41:38.682Z,20.60
2018-08-10T22:44:07.698Z,20.60
2018-08-10T22:46:36.145Z,20.60
2018-08-10T22:49:04.424Z,20.50
2018-08-10T22:51:32.918Z,20.50
2018-08-10T22:54:02.337Z,20.50
2018-08-10T22:56:30.589Z,20.50
2018-08-10T22:58:59.670Z,20.40
2018-08-10T23:01:28.675Z,20.30
2018-08-10T23:03:57.686Z,20.20
2018-08-10T23:06:25.951Z,20.20
2018-08-10T23:08:55.015Z,20.20
2018-08-10T23:11:23.223Z,20.10
2018-08-10T23:13:51.477Z,20.20
2018-08-10T23:16:20.487Z,20.10
2018-08-10T23:18:48.741Z,20.10
2018-08-10T23:21:16.997Z,20.00
2018-08-10T23:23:45.397Z,20.00
2018-08-10T23:26:14.395Z,19.90
2018-08-10T23:28:43.402Z,19.90
2018-08-10T23:31:11.654Z,19.90
2018-08-10T23:33:40.677Z,19.80
2018-08-10T23:36:09.185Z,19.80
2018-08-10T23:38:37.418Z,19.80
2018-08-10T23:41:06.434Z,19.80
2018-08-10T23:43:34.826Z,19.80
2018-08-10T23:46:03.105Z,19.80
2018-08-10T23:48:31.336Z,19.70
2018-08-10T23:50:59.638Z,19.70
2018-08-10T23:53:27.870Z,19.80
2018-08-10T23:55:57.026Z,19.70
2018-08-10T23:58:25.393Z,19.60
